sensor_id;sensor_type;location;lat;lon;timestamp;temperature;humidity
7958;DHT22;4024;52.172;5.378;2023-08-21T00:01:18;22.70;99.90
7958;DHT22;4024;52.172;5.378;2023-08-21T00:03:44;22.70;99.90
7958;DHT22;4024;52.172;5.378;2023-08-21T00:06:10;22.70;99.90
7958;DHT22;4024;52.172;5.378;2023-08-21T00:08:36;22.60;99.90
7958;DHT22;4024;52.172;5.378;2023-08-21T00:11:01;22.70;99.90
7958;DHT22;4024;52.172;5.378;2023-08-21T00:13:27;22.70;99.90
7958;DHT22;4024;52.172;5.378;2023-08-21T00:15:52;22.60;99.90
7958;DHT22;4024;52.172;5.378;2023-08-21T00:18:19;22.60;99.90
7958;DHT22;4024;52.172;5.378;2023-08-21T00:20:45;22.70;99.90
7958;DHT22;4024;52.172;5.378;2023-08-21T00:23:10;22.70;99.90
7958;DHT22;4024;52.172;5.378;2023-08-21T00:25:36;22.60;99.90
7958;DHT22;4024;52.172;5.378;2023-08-21T00:28:02;22.60;99.90
7958;DHT22;4024;52.172;5.378;2023-08-21T00:30:27;22.60;99.90
7958;DHT22;4024;52.172;5.378;2023-08-21T00:32:53;22.60;99.90
7958;DHT22;4024;52.172;5.378;2023-08-21T00:35:19;22.60;99.90
7958;DHT22;4024;52.172;5.378;2023-08-21T00:37:44;22.60;99.90
7958;DHT22;4024;52.172;5.378;2023-08-21T00:40:10;22.60;99.90
7958;DHT22;4024;52.172;5.378;2023-08-21T00:42:36;22.60;99.90
7958;DHT22;4024;52.172;5.378;2023-08-21T00:45:01;22.60;99.90
7958;DHT22;4024;52.172;5.378;2023-08-21T00:47:28;22.60;99.90
7958;DHT22;4024;52.172;5.378;2023-08-21T00:49:54;22.60;99.90
7958;DHT22;4024;52.172;5.378;2023-08-21T00:52:19;22.60;99.90
7958;DHT22;4024;52.172;5.378;2023-08-21T00:54:45;22.60;99.90
7958;DHT22;4024;52.172;5.378;2023-08-21T00:57:11;22.60;99.90
7958;DHT22;4024;52.172;5.378;2023-08-21T00:59:38;22.60;99.90
7958;DHT22;4024;52.172;5.378;2023-08-21T01:02:04;22.60;99.90
7958;DHT22;4024;52.172;5.378;2023-08-21T01:04:29;22.60;99.90
7958;DHT22;4024;52.172;5.378;2023-08-21T01:06:56;22.60;99.90
7958;DHT22;4024;52.172;5.378;2023-08-21T01:09:31;22.60;99.90
7958;DHT22;4024;52.172;5.378;2023-08-21T01:15:03;22.50;99.90
7958;DHT22;4024;52.172;5.378;2023-08-21T01:17:30;22.50;99.90
7958;DHT22;4024;52.172;5.378;2023-08-21T01:19:56;22.50;99.90
7958;DHT22;4024;52.172;5.378;2023-08-21T01:22:27;22.50;99.90
7958;DHT22;4024;52.172;5.378;2023-08-21T01:24:54;22.40;99.90
7958;DHT22;4024;52.172;5.378;2023-08-21T01:27:20;22.40;99.90
7958;DHT22;4024;52.172;5.378;2023-08-21T01:29:47;22.40;99.90
7958;DHT22;4024;52.172;5.378;2023-08-21T01:32:29;22.30;99.90
7958;DHT22;4024;52.172;5.378;2023-08-21T01:34:59;22.30;99.90
7958;DHT22;4024;52.172;5.378;2023-08-21T01:37:26;22.30;99.90
7958;DHT22;4024;52.172;5.378;2023-08-21T01:39:53;22.40;99.90
7958;DHT22;4024;52.172;5.378;2023-08-21T01:42:18;22.30;99.90
7958;DHT22;4024;52.172;5.378;2023-08-21T01:44:44;22.30;99.90
7958;DHT22;4024;52.172;5.378;2023-08-21T01:47:13;22.30;99.90
7958;DHT22;4024;52.172;5.378;2023-08-21T01:49:38;22.30;99.90
7958;DHT22;4024;52.172;5.378;2023-08-21T01:52:04;22.30;99.90
7958;DHT22;4024;52.172;5.378;2023-08-21T01:54:29;22.30;99.90
7958;DHT22;4024;52.172;5.378;2023-08-21T01:56:55;22.40;99.90
7958;DHT22;4024;52.172;5.378;2023-08-21T01:59:24;22.40;99.90
7958;DHT22;4024;52.172;5.378;2023-08-21T02:01:49;22.30;99.90
7958;DHT22;4024;52.172;5.378;2023-08-21T02:04:15;22.30;99.90
7958;DHT22;4024;52.172;5.378;2023-08-21T02:06:41;22.30;99.90
7958;DHT22;4024;52.172;5.378;2023-08-21T02:09:06;22.30;99.90
7958;DHT22;4024;52.172;5.378;2023-08-21T02:11:32;22.30;99.90
7958;DHT22;4024;52.172;5.378;2023-08-21T02:13:58;22.30;99.90
7958;DHT22;4024;52.172;5.378;2023-08-21T02:16:23;22.20;99.90
7958;DHT22;4024;52.172;5.378;2023-08-21T02:18:49;22.20;99.90
7958;DHT22;4024;52.172;5.378;2023-08-21T02:21:14;22.20;99.90
7958;DHT22;4024;52.172;5.378;2023-08-21T02:23:40;22.20;99.90
7958;DHT22;4024;52.172;5.378;2023-08-21T02:26:06;22.10;99.90
7958;DHT22;4024;52.172;5.378;2023-08-21T02:28:31;22.10;99.90
7958;DHT22;4024;52.172;5.378;2023-08-21T02:30:57;22.00;99.90
7958;DHT22;4024;52.172;5.378;2023-08-21T02:33:22;22.00;99.90
7958;DHT22;4024;52.172;5.378;2023-08-21T02:35:48;21.90;99.90
7958;DHT22;4024;52.172;5.378;2023-08-21T02:38:14;21.90;99.90
7958;DHT22;4024;52.172;5.378;2023-08-21T02:40:39;21.90;99.90
7958;DHT22;4024;52.172;5.378;2023-08-21T02:43:05;21.80;99.90
7958;DHT22;4024;52.172;5.378;2023-08-21T02:45:30;21.70;99.90
7958;DHT22;4024;52.172;5.378;2023-08-21T02:47:56;21.70;99.90
7958;DHT22;4024;52.172;5.378;2023-08-21T02:50:22;21.70;99.90
7958;DHT22;4024;52.172;5.378;2023-08-21T02:52:47;21.60;99.90
7958;DHT22;4024;52.172;5.378;2023-08-21T02:55:13;21.60;99.90
7958;DHT22;4024;52.172;5.378;2023-08-21T02:57:39;21.60;99.90
7958;DHT22;4024;52.172;5.378;2023-08-21T03:00:05;21.50;99.90
7958;DHT22;4024;52.172;5.378;2023-08-21T03:02:33;21.60;99.90
7958;DHT22;4024;52.172;5.378;2023-08-21T03:04:59;21.50;99.90
7958;DHT22;4024;52.172;5.378;2023-08-21T03:07:24;21.40;99.90
7958;DHT22;4024;52.172;5.378;2023-08-21T03:09:51;21.50;99.90
7958;DHT22;4024;52.172;5.378;2023-08-21T03:12:17;21.40;99.90
7958;DHT22;4024;52.172;5.378;2023-08-21T03:14:42;21.30;99.90
7958;DHT22;4024;52.172;5.378;2023-08-21T03:17:08;21.40;99.90
7958;DHT22;4024;52.172;5.378;2023-08-21T03:19:34;21.30;99.90
7958;DHT22;4024;52.172;5.378;2023-08-21T03:22:00;21.30;99.90
7958;DHT22;4024;52.172;5.378;2023-08-21T03:24:26;21.20;99.90
7958;DHT22;4024;52.172;5.378;2023-08-21T03:26:52;21.20;99.90
7958;DHT22;4024;52.172;5.378;2023-08-21T03:29:17;21.20;99.90
7958;DHT22;4024;52.172;5.378;2023-08-21T03:31:43;21.20;99.90
7958;DHT22;4024;52.172;5.378;2023-08-21T03:34:11;21.20;99.90
7958;DHT22;4024;52.172;5.378;2023-08-21T03:36:37;21.20;99.90
7958;DHT22;4024;52.172;5.378;2023-08-21T03:39:04;21.20;99.90
7958;DHT22;4024;52.172;5.378;2023-08-21T03:41:31;21.10;99.90
7958;DHT22;4024;52.172;5.378;2023-08-21T03:43:57;21.20;99.90
7958;DHT22;4024;52.172;5.378;2023-08-21T03:46:22;21.10;99.90
7958;DHT22;4024;52.172;5.378;2023-08-21T03:48:48;21.10;99.90
7958;DHT22;4024;52.172;5.378;2023-08-21T03:51:13;21.20;99.90
7958;DHT22;4024;52.172;5.378;2023-08-21T03:53:39;21.20;99.90
7958;DHT22;4024;52.172;5.378;2023-08-21T03:56:05;21.20;99.90
7958;DHT22;4024;52.172;5.378;2023-08-21T03:58:31;21.20;99.90
7958;DHT22;4024;52.172;5.378;2023-08-21T04:00:57;21.10;99.90
7958;DHT22;4024;52.172;5.378;2023-08-21T04:03:22;21.20;99.90
7958;DHT22;4024;52.172;5.378;2023-08-21T04:05:48;21.10;99.90
7958;DHT22;4024;52.172;5.378;2023-08-21T04:08:14;21.20;99.90
7958;DHT22;4024;52.172;5.378;2023-08-21T04:10:39;21.20;99.90
7958;DHT22;4024;52.172;5.378;2023-08-21T04:13:05;21.20;99.90
7958;DHT22;4024;52.172;5.378;2023-08-21T04:15:31;21.10;99.90
7958;DHT22;4024;52.172;5.378;2023-08-21T04:17:57;21.10;99.90
7958;DHT22;4024;52.172;5.378;2023-08-21T04:20:23;21.10;99.90
7958;DHT22;4024;52.172;5.378;2023-08-21T04:22:49;21.10;99.90
7958;DHT22;4024;52.172;5.378;2023-08-21T04:25:15;21.10;99.90
7958;DHT22;4024;52.172;5.378;2023-08-21T04:27:41;21.10;99.90
7958;DHT22;4024;52.172;5.378;2023-08-21T04:30:08;21.10;99.90
7958;DHT22;4024;52.172;5.378;2023-08-21T04:32:34;21.10;99.90
7958;DHT22;4024;52.172;5.378;2023-08-21T04:35:00;21.10;99.90
7958;DHT22;4024;52.172;5.378;2023-08-21T04:37:25;21.20;99.90
7958;DHT22;4024;52.172;5.378;2023-08-21T04:39:54;21.20;99.90
7958;DHT22;4024;52.172;5.378;2023-08-21T04:42:21;21.20;99.90
7958;DHT22;4024;52.172;5.378;2023-08-21T04:44:46;21.10;99.90
7958;DHT22;4024;52.172;5.378;2023-08-21T04:47:25;21.20;99.90
7958;DHT22;4024;52.172;5.378;2023-08-21T04:49:54;21.20;99.90
7958;DHT22;4024;52.172;5.378;2023-08-21T04:52:21;21.20;99.90
7958;DHT22;4024;52.172;5.378;2023-08-21T04:54:50;21.10;99.90
7958;DHT22;4024;52.172;5.378;2023-08-21T04:57:16;21.10;99.90
7958;DHT22;4024;52.172;5.378;2023-08-21T04:59:43;21.10;99.90
7958;DHT22;4024;52.172;5.378;2023-08-21T05:02:09;21.10;99.90
7958;DHT22;4024;52.172;5.378;2023-08-21T05:04:36;21.00;99.90
7958;DHT22;4024;52.172;5.378;2023-08-21T05:07:02;21.10;99.90
7958;DHT22;4024;52.172;5.378;2023-08-21T05:09:28;21.00;99.90
7958;DHT22;4024;52.172;5.378;2023-08-21T05:11:54;21.10;99.90
7958;DHT22;4024;52.172;5.378;2023-08-21T05:14:21;21.10;99.90
7958;DHT22;4024;52.172;5.378;2023-08-21T05:16:46;21.10;99.90
7958;DHT22;4024;52.172;5.378;2023-08-21T05:19:12;21.10;99.90
7958;DHT22;4024;52.172;5.378;2023-08-21T05:21:38;21.00;99.90
7958;DHT22;4024;52.172;5.378;2023-08-21T05:24:03;21.10;99.90
7958;DHT22;4024;52.172;5.378;2023-08-21T05:26:29;21.10;99.90
7958;DHT22;4024;52.172;5.378;2023-08-21T05:28:55;21.10;99.90
7958;DHT22;4024;52.172;5.378;2023-08-21T05:31:20;21.10;99.90
7958;DHT22;4024;52.172;5.378;2023-08-21T05:33:46;21.20;99.90
7958;DHT22;4024;52.172;5.378;2023-08-21T05:36:11;21.20;99.90
7958;DHT22;4024;52.172;5.378;2023-08-21T05:38:37;21.20;99.90
7958;DHT22;4024;52.172;5.378;2023-08-21T05:41:03;21.30;99.90
7958;DHT22;4024;52.172;5.378;2023-08-21T05:43:28;21.30;99.90
7958;DHT22;4024;52.172;5.378;2023-08-21T05:45:54;21.30;99.90
7958;DHT22;4024;52.172;5.378;2023-08-21T05:48:20;21.30;99.90
7958;DHT22;4024;52.172;5.378;2023-08-21T05:50:50;21.30;99.90
7958;DHT22;4024;52.172;5.378;2023-08-21T05:53:16;21.30;99.90
7958;DHT22;4024;52.172;5.378;2023-08-21T05:55:41;21.30;99.90
7958;DHT22;4024;52.172;5.378;2023-08-21T05:58:07;21.30;99.90
7958;DHT22;4024;52.172;5.378;2023-08-21T06:00:33;21.40;99.90
7958;DHT22;4024;52.172;5.378;2023-08-21T06:02:59;21.40;99.90
7958;DHT22;4024;52.172;5.378;2023-08-21T06:05:24;21.50;99.90
7958;DHT22;4024;52.172;5.378;2023-08-21T06:07:50;21.50;99.90
7958;DHT22;4024;52.172;5.378;2023-08-21T06:10:17;21.50;99.90
7958;DHT22;4024;52.172;5.378;2023-08-21T06:12:42;21.60;99.90
7958;DHT22;4024;52.172;5.378;2023-08-21T06:15:08;21.60;99.90
7958;DHT22;4024;52.172;5.378;2023-08-21T06:17:35;21.70;99.90
7958;DHT22;4024;52.172;5.378;2023-08-21T06:20:00;21.80;99.90
7958;DHT22;4024;52.172;5.378;2023-08-21T06:22:26;21.90;99.90
7958;DHT22;4024;52.172;5.378;2023-08-21T06:24:51;21.90;99.90
7958;DHT22;4024;52.172;5.378;2023-08-21T06:27:17;22.00;99.90
7958;DHT22;4024;52.172;5.378;2023-08-21T06:29:43;22.10;99.90
7958;DHT22;4024;52.172;5.378;2023-08-21T06:32:08;22.10;99.90
7958;DHT22;4024;52.172;5.378;2023-08-21T06:34:34;22.20;99.90
7958;DHT22;4024;52.172;5.378;2023-08-21T06:37:00;22.30;99.90
7958;DHT22;4024;52.172;5.378;2023-08-21T06:39:26;22.40;99.90
7958;DHT22;4024;52.172;5.378;2023-08-21T06:41:51;22.50;99.90
7958;DHT22;4024;52.172;5.378;2023-08-21T06:44:17;22.60;99.90
7958;DHT22;4024;52.172;5.378;2023-08-21T06:46:43;22.60;99.90
7958;DHT22;4024;52.172;5.378;2023-08-21T06:49:09;22.70;99.90
7958;DHT22;4024;52.172;5.378;2023-08-21T06:51:34;22.70;99.90
7958;DHT22;4024;52.172;5.378;2023-08-21T06:54:00;22.70;99.90
7958;DHT22;4024;52.172;5.378;2023-08-21T06:56:26;22.80;99.90
7958;DHT22;4024;52.172;5.378;2023-08-21T06:58:52;22.90;99.90
7958;DHT22;4024;52.172;5.378;2023-08-21T07:01:17;22.90;99.90
7958;DHT22;4024;52.172;5.378;2023-08-21T07:03:43;23.00;99.90
7958;DHT22;4024;52.172;5.378;2023-08-21T07:06:09;23.10;99.90
7958;DHT22;4024;52.172;5.378;2023-08-21T07:08:34;23.10;99.90
7958;DHT22;4024;52.172;5.378;2023-08-21T07:11:02;23.20;99.90
7958;DHT22;4024;52.172;5.378;2023-08-21T07:13:29;23.30;99.90
7958;DHT22;4024;52.172;5.378;2023-08-21T07:15:55;23.30;99.90
7958;DHT22;4024;52.172;5.378;2023-08-21T07:18:20;23.40;99.90
7958;DHT22;4024;52.172;5.378;2023-08-21T07:20:46;23.40;99.90
7958;DHT22;4024;52.172;5.378;2023-08-21T07:23:12;23.50;99.90
7958;DHT22;4024;52.172;5.378;2023-08-21T07:25:37;23.50;99.90
7958;DHT22;4024;52.172;5.378;2023-08-21T07:28:03;23.60;99.90
7958;DHT22;4024;52.172;5.378;2023-08-21T07:30:29;23.70;99.90
7958;DHT22;4024;52.172;5.378;2023-08-21T07:32:55;23.80;99.90
7958;DHT22;4024;52.172;5.378;2023-08-21T07:35:20;23.80;99.90
7958;DHT22;4024;52.172;5.378;2023-08-21T07:37:46;23.90;99.90
7958;DHT22;4024;52.172;5.378;2023-08-21T07:40:12;24.00;99.90
7958;DHT22;4024;52.172;5.378;2023-08-21T07:42:38;24.00;99.90
7958;DHT22;4024;52.172;5.378;2023-08-21T07:45:04;24.10;99.90
7958;DHT22;4024;52.172;5.378;2023-08-21T07:47:30;24.10;99.90
7958;DHT22;4024;52.172;5.378;2023-08-21T07:49:56;24.10;99.90
7958;DHT22;4024;52.172;5.378;2023-08-21T07:52:22;24.10;99.90
7958;DHT22;4024;52.172;5.378;2023-08-21T07:54:54;24.20;99.90
7958;DHT22;4024;52.172;5.378;2023-08-21T07:57:20;24.20;99.90
7958;DHT22;4024;52.172;5.378;2023-08-21T07:59:45;24.30;99.90
7958;DHT22;4024;52.172;5.378;2023-08-21T08:02:11;24.30;99.90
7958;DHT22;4024;52.172;5.378;2023-08-21T08:04:40;24.30;99.90
7958;DHT22;4024;52.172;5.378;2023-08-21T08:07:05;24.40;99.90
7958;DHT22;4024;52.172;5.378;2023-08-21T08:09:31;24.40;99.90
7958;DHT22;4024;52.172;5.378;2023-08-21T08:11:56;24.40;99.90
7958;DHT22;4024;52.172;5.378;2023-08-21T08:14:22;24.50;99.90
7958;DHT22;4024;52.172;5.378;2023-08-21T08:16:48;24.60;99.90
7958;DHT22;4024;52.172;5.378;2023-08-21T08:19:13;24.60;99.90
7958;DHT22;4024;52.172;5.378;2023-08-21T08:21:39;24.70;99.90
7958;DHT22;4024;52.172;5.378;2023-08-21T08:24:05;24.70;99.90
7958;DHT22;4024;52.172;5.378;2023-08-21T08:26:30;24.70;99.90
7958;DHT22;4024;52.172;5.378;2023-08-21T08:28:56;24.80;99.90
7958;DHT22;4024;52.172;5.378;2023-08-21T08:31:22;24.80;99.90
7958;DHT22;4024;52.172;5.378;2023-08-21T08:33:49;24.80;99.90
7958;DHT22;4024;52.172;5.378;2023-08-21T08:36:14;24.80;99.90
7958;DHT22;4024;52.172;5.378;2023-08-21T08:38:40;24.90;99.90
7958;DHT22;4024;52.172;5.378;2023-08-21T08:41:11;24.80;99.90
7958;DHT22;4024;52.172;5.378;2023-08-21T08:43:40;24.80;99.90
7958;DHT22;4024;52.172;5.378;2023-08-21T08:46:07;24.90;99.90
7958;DHT22;4024;52.172;5.378;2023-08-21T08:48:34;24.90;99.90
7958;DHT22;4024;52.172;5.378;2023-08-21T08:51:01;24.90;99.90
7958;DHT22;4024;52.172;5.378;2023-08-21T08:53:29;24.90;99.90
7958;DHT22;4024;52.172;5.378;2023-08-21T08:55:55;24.90;99.90
7958;DHT22;4024;52.172;5.378;2023-08-21T08:58:20;24.90;99.90
7958;DHT22;4024;52.172;5.378;2023-08-21T09:00:47;24.90;99.90
7958;DHT22;4024;52.172;5.378;2023-08-21T09:03:13;24.90;99.90
7958;DHT22;4024;52.172;5.378;2023-08-21T09:05:39;24.90;99.90
7958;DHT22;4024;52.172;5.378;2023-08-21T09:08:10;24.90;99.90
7958;DHT22;4024;52.172;5.378;2023-08-21T09:10:37;24.90;99.90
7958;DHT22;4024;52.172;5.378;2023-08-21T09:13:30;24.90;99.90
7958;DHT22;4024;52.172;5.378;2023-08-21T09:15:56;24.90;99.90
7958;DHT22;4024;52.172;5.378;2023-08-21T09:18:22;25.00;99.90
7958;DHT22;4024;52.172;5.378;2023-08-21T09:20:48;25.10;99.90
7958;DHT22;4024;52.172;5.378;2023-08-21T09:23:15;25.00;99.90
7958;DHT22;4024;52.172;5.378;2023-08-21T09:25:44;25.10;99.90
7958;DHT22;4024;52.172;5.378;2023-08-21T09:28:12;25.10;99.90
7958;DHT22;4024;52.172;5.378;2023-08-21T09:30:51;25.20;99.90
7958;DHT22;4024;52.172;5.378;2023-08-21T09:33:22;25.20;99.90
7958;DHT22;4024;52.172;5.378;2023-08-21T09:35:49;25.20;99.90
7958;DHT22;4024;52.172;5.378;2023-08-21T09:38:16;25.20;99.90
7958;DHT22;4024;52.172;5.378;2023-08-21T09:40:49;25.20;99.90
7958;DHT22;4024;52.172;5.378;2023-08-21T09:43:16;25.30;99.90
7958;DHT22;4024;52.172;5.378;2023-08-21T09:45:48;25.30;99.90
7958;DHT22;4024;52.172;5.378;2023-08-21T09:48:14;25.40;99.90
7958;DHT22;4024;52.172;5.378;2023-08-21T09:50:40;25.40;99.90
7958;DHT22;4024;52.172;5.378;2023-08-21T09:53:06;25.40;99.90
7958;DHT22;4024;52.172;5.378;2023-08-21T09:55:32;25.40;99.90
7958;DHT22;4024;52.172;5.378;2023-08-21T09:58:00;25.50;99.90
7958;DHT22;4024;52.172;5.378;2023-08-21T10:00:30;25.50;99.90
7958;DHT22;4024;52.172;5.378;2023-08-21T10:03:03;25.50;99.90
7958;DHT22;4024;52.172;5.378;2023-08-21T10:05:31;25.50;99.90
7958;DHT22;4024;52.172;5.378;2023-08-21T10:08:00;25.60;99.90
7958;DHT22;4024;52.172;5.378;2023-08-21T10:10:29;25.60;99.90
7958;DHT22;4024;52.172;5.378;2023-08-21T10:12:55;25.60;99.90
7958;DHT22;4024;52.172;5.378;2023-08-21T10:15:20;25.70;99.90
7958;DHT22;4024;52.172;5.378;2023-08-21T10:17:46;25.70;99.90
7958;DHT22;4024;52.172;5.378;2023-08-21T10:20:12;25.80;99.90
7958;DHT22;4024;52.172;5.378;2023-08-21T10:22:49;25.80;99.90
7958;DHT22;4024;52.172;5.378;2023-08-21T10:25:19;25.80;99.90
7958;DHT22;4024;52.172;5.378;2023-08-21T10:27:58;25.90;99.90
7958;DHT22;4024;52.172;5.378;2023-08-21T10:30:26;26.00;99.90
7958;DHT22;4024;52.172;5.378;2023-08-21T10:32:54;26.00;99.90
7958;DHT22;4024;52.172;5.378;2023-08-21T10:35:25;26.10;99.90
7958;DHT22;4024;52.172;5.378;2023-08-21T10:38:13;26.10;99.90
7958;DHT22;4024;52.172;5.378;2023-08-21T10:40:41;26.10;99.90
7958;DHT22;4024;52.172;5.378;2023-08-21T10:43:42;26.20;99.90
7958;DHT22;4024;52.172;5.378;2023-08-21T10:46:12;26.20;99.90
7958;DHT22;4024;52.172;5.378;2023-08-21T10:48:38;26.20;99.90
7958;DHT22;4024;52.172;5.378;2023-08-21T10:51:06;26.30;99.90
7958;DHT22;4024;52.172;5.378;2023-08-21T10:53:33;26.40;99.90
7958;DHT22;4024;52.172;5.378;2023-08-21T10:56:03;26.40;99.90
7958;DHT22;4024;52.172;5.378;2023-08-21T10:58:43;26.50;99.90
7958;DHT22;4024;52.172;5.378;2023-08-21T11:01:13;26.40;99.90
7958;DHT22;4024;52.172;5.378;2023-08-21T11:03:39;26.50;99.90
7958;DHT22;4024;52.172;5.378;2023-08-21T11:06:07;26.50;99.90
7958;DHT22;4024;52.172;5.378;2023-08-21T11:08:33;26.50;99.90
7958;DHT22;4024;52.172;5.378;2023-08-21T11:11:03;26.60;99.90
7958;DHT22;4024;52.172;5.378;2023-08-21T11:13:29;26.60;99.90
7958;DHT22;4024;52.172;5.378;2023-08-21T11:18:33;26.60;99.90
7958;DHT22;4024;52.172;5.378;2023-08-21T11:21:10;26.70;99.90
7958;DHT22;4024;52.172;5.378;2023-08-21T11:23:40;26.70;99.90
7958;DHT22;4024;52.172;5.378;2023-08-21T11:26:09;26.70;99.90
7958;DHT22;4024;52.172;5.378;2023-08-21T11:28:35;26.80;99.90
7958;DHT22;4024;52.172;5.378;2023-08-21T11:31:00;26.80;99.90
7958;DHT22;4024;52.172;5.378;2023-08-21T11:33:27;26.80;99.90
7958;DHT22;4024;52.172;5.378;2023-08-21T11:35:54;26.90;99.90
7958;DHT22;4024;52.172;5.378;2023-08-21T11:38:21;26.90;99.90
7958;DHT22;4024;52.172;5.378;2023-08-21T11:41:01;26.90;99.90
7958;DHT22;4024;52.172;5.378;2023-08-21T11:43:41;27.00;99.90
7958;DHT22;4024;52.172;5.378;2023-08-21T11:46:09;27.10;99.90
7958;DHT22;4024;52.172;5.378;2023-08-21T11:48:40;27.10;99.90
7958;DHT22;4024;52.172;5.378;2023-08-21T11:51:07;27.20;99.90
7958;DHT22;4024;52.172;5.378;2023-08-21T11:53:36;27.20;99.90
7958;DHT22;4024;52.172;5.378;2023-08-21T11:56:03;27.30;99.90
7958;DHT22;4024;52.172;5.378;2023-08-21T11:58:29;27.40;99.90
7958;DHT22;4024;52.172;5.378;2023-08-21T12:01:02;27.50;99.90
7958;DHT22;4024;52.172;5.378;2023-08-21T12:03:29;27.60;99.90
7958;DHT22;4024;52.172;5.378;2023-08-21T12:05:55;27.70;99.90
7958;DHT22;4024;52.172;5.378;2023-08-21T12:08:20;27.70;99.90
7958;DHT22;4024;52.172;5.378;2023-08-21T12:10:50;27.80;99.90
7958;DHT22;4024;52.172;5.378;2023-08-21T12:13:16;27.90;99.90
7958;DHT22;4024;52.172;5.378;2023-08-21T12:15:41;28.00;99.90
7958;DHT22;4024;52.172;5.378;2023-08-21T12:18:07;28.10;99.90
7958;DHT22;4024;52.172;5.378;2023-08-21T12:20:32;28.10;99.90
7958;DHT22;4024;52.172;5.378;2023-08-21T12:22:59;28.10;99.90
7958;DHT22;4024;52.172;5.378;2023-08-21T12:25:24;28.10;99.90
7958;DHT22;4024;52.172;5.378;2023-08-21T12:27:50;28.10;99.90
7958;DHT22;4024;52.172;5.378;2023-08-21T12:30:15;28.10;99.90
7958;DHT22;4024;52.172;5.378;2023-08-21T12:32:41;28.10;99.90
7958;DHT22;4024;52.172;5.378;2023-08-21T12:35:07;28.20;99.90
7958;DHT22;4024;52.172;5.378;2023-08-21T12:37:33;28.20;99.90
7958;DHT22;4024;52.172;5.378;2023-08-21T12:39:59;28.20;99.90
7958;DHT22;4024;52.172;5.378;2023-08-21T12:42:24;28.30;99.90
7958;DHT22;4024;52.172;5.378;2023-08-21T12:44:50;28.30;99.90
7958;DHT22;4024;52.172;5.378;2023-08-21T12:47:15;28.40;99.90
7958;DHT22;4024;52.172;5.378;2023-08-21T12:49:41;28.40;99.90
7958;DHT22;4024;52.172;5.378;2023-08-21T12:52:07;28.40;99.90
7958;DHT22;4024;52.172;5.378;2023-08-21T12:54:32;28.50;99.90
7958;DHT22;4024;52.172;5.378;2023-08-21T12:56:58;28.50;99.90
7958;DHT22;4024;52.172;5.378;2023-08-21T12:59:23;28.50;99.90
7958;DHT22;4024;52.172;5.378;2023-08-21T13:01:49;28.60;99.90
7958;DHT22;4024;52.172;5.378;2023-08-21T13:04:15;28.50;99.90
7958;DHT22;4024;52.172;5.378;2023-08-21T13:06:40;28.60;99.90
7958;DHT22;4024;52.172;5.378;2023-08-21T13:09:07;28.60;99.90
7958;DHT22;4024;52.172;5.378;2023-08-21T13:11:33;28.60;99.90
7958;DHT22;4024;52.172;5.378;2023-08-21T13:13:58;28.60;99.90
7958;DHT22;4024;52.172;5.378;2023-08-21T13:16:24;28.50;99.90
7958;DHT22;4024;52.172;5.378;2023-08-21T13:18:49;28.50;99.90
7958;DHT22;4024;52.172;5.378;2023-08-21T13:21:15;28.50;99.90
7958;DHT22;4024;52.172;5.378;2023-08-21T13:23:40;28.50;99.90
7958;DHT22;4024;52.172;5.378;2023-08-21T13:26:06;28.60;99.90
7958;DHT22;4024;52.172;5.378;2023-08-21T13:28:32;28.60;99.90
7958;DHT22;4024;52.172;5.378;2023-08-21T13:30:57;28.70;99.90
7958;DHT22;4024;52.172;5.378;2023-08-21T13:33:23;28.70;99.90
7958;DHT22;4024;52.172;5.378;2023-08-21T13:35:49;28.80;99.90
7958;DHT22;4024;52.172;5.378;2023-08-21T13:38:15;28.80;99.90
7958;DHT22;4024;52.172;5.378;2023-08-21T13:40:41;28.80;99.90
7958;DHT22;4024;52.172;5.378;2023-08-21T13:43:07;28.70;99.90
7958;DHT22;4024;52.172;5.378;2023-08-21T13:45:35;28.80;99.90
7958;DHT22;4024;52.172;5.378;2023-08-21T13:48:00;28.80;99.90
7958;DHT22;4024;52.172;5.378;2023-08-21T13:50:26;28.70;99.90
7958;DHT22;4024;52.172;5.378;2023-08-21T13:52:52;28.70;99.90
7958;DHT22;4024;52.172;5.378;2023-08-21T13:55:17;28.60;99.90
7958;DHT22;4024;52.172;5.378;2023-08-21T13:57:43;28.60;99.90
7958;DHT22;4024;52.172;5.378;2023-08-21T14:00:10;28.60;99.90
7958;DHT22;4024;52.172;5.378;2023-08-21T14:02:41;28.60;99.90
7958;DHT22;4024;52.172;5.378;2023-08-21T14:05:07;28.60;99.90
7958;DHT22;4024;52.172;5.378;2023-08-21T14:07:34;28.70;99.90
7958;DHT22;4024;52.172;5.378;2023-08-21T14:10:00;28.70;99.90
7958;DHT22;4024;52.172;5.378;2023-08-21T14:12:28;28.80;99.90
7958;DHT22;4024;52.172;5.378;2023-08-21T14:14:54;28.90;99.90
7958;DHT22;4024;52.172;5.378;2023-08-21T14:17:21;28.90;99.90
7958;DHT22;4024;52.172;5.378;2023-08-21T14:19:47;29.00;99.90
7958;DHT22;4024;52.172;5.378;2023-08-21T14:22:12;29.00;99.90
7958;DHT22;4024;52.172;5.378;2023-08-21T14:24:38;29.10;99.90
7958;DHT22;4024;52.172;5.378;2023-08-21T14:27:04;29.10;99.90
7958;DHT22;4024;52.172;5.378;2023-08-21T14:29:29;29.20;99.90
7958;DHT22;4024;52.172;5.378;2023-08-21T14:31:55;29.30;99.90
7958;DHT22;4024;52.172;5.378;2023-08-21T14:34:22;29.30;99.90
7958;DHT22;4024;52.172;5.378;2023-08-21T14:36:48;29.30;99.90
7958;DHT22;4024;52.172;5.378;2023-08-21T14:39:15;29.30;99.90
7958;DHT22;4024;52.172;5.378;2023-08-21T14:41:42;29.40;99.90
7958;DHT22;4024;52.172;5.378;2023-08-21T14:44:08;29.40;99.90
7958;DHT22;4024;52.172;5.378;2023-08-21T14:46:34;29.50;99.90
7958;DHT22;4024;52.172;5.378;2023-08-21T14:49:00;29.50;99.90
7958;DHT22;4024;52.172;5.378;2023-08-21T14:51:26;29.60;99.90
7958;DHT22;4024;52.172;5.378;2023-08-21T14:53:51;29.50;99.90
7958;DHT22;4024;52.172;5.378;2023-08-21T14:56:17;29.50;99.90
7958;DHT22;4024;52.172;5.378;2023-08-21T14:58:43;29.50;99.90
7958;DHT22;4024;52.172;5.378;2023-08-21T15:01:10;29.50;99.90
7958;DHT22;4024;52.172;5.378;2023-08-21T15:03:38;29.50;99.90
7958;DHT22;4024;52.172;5.378;2023-08-21T15:06:04;29.50;99.90
7958;DHT22;4024;52.172;5.378;2023-08-21T15:08:30;29.40;99.90
7958;DHT22;4024;52.172;5.378;2023-08-21T15:10:55;29.40;99.90
7958;DHT22;4024;52.172;5.378;2023-08-21T15:13:21;29.50;99.90
7958;DHT22;4024;52.172;5.378;2023-08-21T15:15:47;29.40;99.90
7958;DHT22;4024;52.172;5.378;2023-08-21T15:18:12;29.50;99.90
7958;DHT22;4024;52.172;5.378;2023-08-21T15:20:38;29.50;99.90
7958;DHT22;4024;52.172;5.378;2023-08-21T15:23:04;29.60;99.90
7958;DHT22;4024;52.172;5.378;2023-08-21T15:25:29;29.60;99.90
7958;DHT22;4024;52.172;5.378;2023-08-21T15:27:55;29.60;99.90
7958;DHT22;4024;52.172;5.378;2023-08-21T15:30:20;29.60;99.90
7958;DHT22;4024;52.172;5.378;2023-08-21T15:32:46;29.60;99.90
7958;DHT22;4024;52.172;5.378;2023-08-21T15:35:13;29.60;99.90
7958;DHT22;4024;52.172;5.378;2023-08-21T15:37:40;29.60;99.90
7958;DHT22;4024;52.172;5.378;2023-08-21T15:40:08;29.60;99.90
7958;DHT22;4024;52.172;5.378;2023-08-21T15:42:34;29.60;99.90
7958;DHT22;4024;52.172;5.378;2023-08-21T15:45:00;29.60;99.90
7958;DHT22;4024;52.172;5.378;2023-08-21T15:47:25;29.60;99.90
7958;DHT22;4024;52.172;5.378;2023-08-21T15:49:51;29.60;99.90
7958;DHT22;4024;52.172;5.378;2023-08-21T15:52:17;29.60;99.90
7958;DHT22;4024;52.172;5.378;2023-08-21T15:54:42;29.60;99.90
7958;DHT22;4024;52.172;5.378;2023-08-21T15:57:08;29.60;99.90
7958;DHT22;4024;52.172;5.378;2023-08-21T15:59:33;29.50;99.90
7958;DHT22;4024;52.172;5.378;2023-08-21T16:01:59;29.60;99.90
7958;DHT22;4024;52.172;5.378;2023-08-21T16:04:25;29.60;99.90